Terminal Aerodrome Forecast
Issued by NWS

Home | Current Version | Previous Version | Text Only | Print | Product List | Glossary On
Versions: 1 2 3 4 5 6 7 8 9 10 11 12 13 14 15 16 17 18 19 20 21 22 23 24 25 26 27 28 29 30 31 32 33 34 35 36 37 38 39 40 41 42 43 44 45 46 47 48 49 50
000
FTUS46 KMTR 171728
TAFSFO
TAF
KSFO 171728Z 1718/1824 33006KT P6SM FEW008
     FM172100 29012KT P6SM FEW011
     FM180400 28010KT P6SM FEW010
     FM180900 28006KT P6SM FEW008
     FM181300 30008KT P6SM SCT012
     FM181630 30010KT P6SM FEW011
     FM182100 29013KT P6SM SKC=

USA.gov is the U.S. government's official web portal to all federal, state and local government web resources and services.